Time;durP1;ratioP1;P1;durP2;ratioP2;P2;SDS_P1;SDS_P2;PMS_P1;PMS_P2;Temp;Humidity;BMP_temperature;BMP_pressure;BME280_temperature;BME280_humidity;BME280_pressure;Samples;Min_cycle;Max_cycle;Signal;HPM_P1;HPM_P2
2023/11/01 00:02:06;;;;;;;3.60;2.60;;;;;;;10.46;76.63;95785.44;5011566;28;20164;-65
2023/11/01 00:04:31;;;;;;;3.07;2.70;;;;;;;10.46;76.87;95774.94;5030618;28;20180;-66
2023/11/01 00:06:58;;;;;;;2.90;2.50;;;;;;;10.57;76.53;95783.09;5031760;28;20183;-67
2023/11/01 00:09:24;;;;;;;3.27;2.37;;;;;;;10.50;76.51;95786.13;5032138;28;20178;-68
2023/11/01 00:11:49;;;;;;;3.77;3.23;;;;;;;10.54;76.59;95780.66;5034266;28;20624;-67
2023/11/01 00:14:15;;;;;;;4.57;2.70;;;;;;;10.50;76.27;95788.75;5030890;28;20475;-69
2023/11/01 00:16:41;;;;;;;3.03;2.60;;;;;;;10.50;76.61;95789.59;5030607;28;20195;-70
2023/11/01 00:19:06;;;;;;;2.33;1.90;;;;;;;10.54;76.24;95775.41;5030321;28;20191;-70
2023/11/01 00:21:31;;;;;;;2.50;2.30;;;;;;;10.52;76.42;95787.75;5030577;28;20171;-70
2023/11/01 00:23:57;;;;;;;3.07;2.73;;;;;;;10.57;75.64;95779.63;5030082;28;20194;-69
2023/11/01 00:26:23;;;;;;;2.87;2.23;;;;;;;10.53;75.80;95784.19;5029504;28;20198;-69
2023/11/01 00:28:48;;;;;;;3.23;2.30;;;;;;;10.44;76.70;95782.09;5029992;28;20163;-68
2023/11/01 00:31:14;;;;;;;2.40;2.20;;;;;;;10.52;76.14;95776.41;5032223;28;20768;-70
2023/11/01 00:33:39;;;;;;;3.50;2.43;;;;;;;10.47;76.14;95771.41;5032600;28;20685;-65
2023/11/01 00:36:05;;;;;;;6.57;2.60;;;;;;;10.55;75.75;95779.72;5028460;28;20180;-70
2023/11/01 00:38:35;;;;;;;4.23;2.60;;;;;;;10.57;76.26;95769.16;5035431;28;20919;-67
2023/11/01 00:41:02;;;;;;;9.10;2.83;;;;;;;10.55;76.40;95774.47;5034143;28;20175;-68
2023/11/01 00:43:28;;;;;;;2.93;2.37;;;;;;;10.49;75.89;95764.31;5034734;28;20421;-69
2023/11/01 00:45:53;;;;;;;2.60;2.20;;;;;;;10.57;76.13;95764.72;5030050;28;20410;-69
2023/11/01 00:48:19;;;;;;;3.33;2.50;;;;;;;10.46;76.69;95771.50;5029680;28;20192;-68
2023/11/01 00:50:45;;;;;;;6.33;2.70;;;;;;;10.45;76.82;95775.06;5027793;28;20179;-68
2023/11/01 00:53:10;;;;;;;3.10;2.57;;;;;;;10.45;76.57;95768.03;5029041;28;20182;-70
2023/11/01 00:55:35;;;;;;;3.87;3.00;;;;;;;10.50;76.15;95767.78;5029035;28;20176;-70
2023/11/01 00:58:01;;;;;;;4.10;2.27;;;;;;;10.44;76.51;95771.59;5028889;28;20606;-69
2023/11/01 01:00:26;;;;;;;3.83;2.40;;;;;;;10.48;76.56;95762.59;5029231;28;20194;-70
2023/11/01 01:02:52;;;;;;;2.47;2.27;;;;;;;10.44;76.33;95765.47;5029090;28;20171;-70
2023/11/01 01:05:17;;;;;;;4.20;2.50;;;;;;;10.50;76.43;95758.13;5028894;28;20581;-67
2023/11/01 01:07:43;;;;;;;2.40;2.20;;;;;;;10.40;76.92;95756.09;5028871;28;20219;-70
2023/11/01 01:10:08;;;;;;;3.10;2.63;;;;;;;10.37;77.01;95755.31;5028841;28;20643;-70
2023/11/01 01:12:33;;;;;;;2.60;2.17;;;;;;;10.44;76.47;95742.75;5028729;28;20593;-69
2023/11/01 01:14:59;;;;;;;2.67;2.43;;;;;;;10.45;76.63;95746.19;5028309;28;20190;-67
2023/11/01 01:17:25;;;;;;;3.43;2.40;;;;;;;10.34;76.92;95739.72;5028669;28;20192;-70
2023/11/01 01:19:51;;;;;;;5.60;3.07;;;;;;;10.37;77.15;95742.22;5028639;28;20345;-71
2023/11/01 01:22:16;;;;;;;2.60;2.17;;;;;;;10.33;76.81;95748.53;5029051;28;20569;-70
2023/11/01 01:24:42;;;;;;;4.53;2.40;;;;;;;10.36;76.79;95751.00;5028971;28;20468;-70
2023/11/01 01:27:07;;;;;;;2.53;2.00;;;;;;;10.43;76.44;95740.19;5028736;28;20198;-69
2023/11/01 01:29:32;;;;;;;2.27;2.00;;;;;;;10.40;76.05;95730.72;5028675;28;20748;-69
2023/11/01 01:31:58;;;;;;;2.73;2.00;;;;;;;10.40;76.53;95737.75;5028445;28;20655;-69
2023/11/01 01:34:23;;;;;;;4.60;1.87;;;;;;;10.31;76.73;95734.66;5028271;28;20585;-69
2023/11/01 01:36:48;;;;;;;2.47;2.00;;;;;;;10.31;76.66;95736.44;5028309;28;20199;-70
2023/11/01 01:39:14;;;;;;;3.57;2.00;;;;;;;10.22;76.90;95729.88;5028268;28;20282;-68
2023/11/01 01:41:40;;;;;;;15.87;3.33;;;;;;;10.30;76.38;95721.63;5028302;28;20642;-69
2023/11/01 01:44:05;;;;;;;3.70;1.83;;;;;;;10.35;76.49;95725.72;5028113;28;20497;-68
2023/11/01 01:46:31;;;;;;;1.97;1.63;;;;;;;10.26;76.51;95723.53;5028310;28;20206;-69
2023/11/01 01:48:58;;;;;;;3.60;1.67;;;;;;;10.31;76.34;95724.16;5028419;28;20172;-69
2023/11/01 01:51:23;;;;;;;2.90;1.50;;;;;;;10.29;76.47;95718.16;5027846;28;20175;-68
2023/11/01 01:53:51;;;;;;;2.23;2.03;;;;;;;10.24;76.71;95708.81;5028065;28;20456;-69
2023/11/01 01:56:19;;;;;;;2.07;1.80;;;;;;;10.26;76.60;95713.06;5028110;28;20551;-70
2023/11/01 01:58:45;;;;;;;2.53;1.53;;;;;;;10.22;76.59;95729.03;5027790;28;20461;-68
2023/11/01 02:01:12;;;;;;;1.80;1.53;;;;;;;10.21;76.88;95729.97;5027966;28;20424;-70
2023/11/01 02:03:37;;;;;;;2.60;1.53;;;;;;;10.23;76.71;95733.34;5028008;28;20414;-70
2023/11/01 02:06:05;;;;;;;3.13;2.00;;;;;;;10.29;76.80;95727.81;5027526;28;20413;-69
2023/11/01 02:08:30;;;;;;;2.77;1.80;;;;;;;10.44;75.50;95727.00;5026404;28;20827;-69
2023/11/01 02:10:56;;;;;;;2.67;2.03;;;;;;;10.35;75.73;95717.84;5027651;28;20418;-68
2023/11/01 02:13:21;;;;;;;3.27;2.20;;;;;;;10.38;75.29;95720.28;5027763;28;20171;-71
2023/11/01 02:15:48;;;;;;;2.70;1.93;;;;;;;10.26;75.74;95722.69;5027280;28;20179;-69
2023/11/01 02:18:14;;;;;;;3.20;2.10;;;;;;;10.04;76.33;95713.38;5027911;28;20210;-69
2023/11/01 02:20:44;;;;;;;3.60;2.63;;;;;;;10.13;76.21;95706.75;5027316;28;20402;-70
2023/11/01 02:23:10;;;;;;;2.50;1.50;;;;;;;10.09;76.72;95707.88;5027631;28;20398;-69
2023/11/01 02:25:36;;;;;;;2.30;1.80;;;;;;;9.98;76.63;95697.94;5027117;28;20398;-70
2023/11/01 02:28:06;;;;;;;4.97;1.70;;;;;;;10.14;75.95;95682.25;5027180;28;20430;-70
2023/11/01 02:30:31;;;;;;;5.30;2.63;;;;;;;10.18;75.82;95684.63;5027136;28;20420;-69
2023/11/01 02:32:57;;;;;;;2.73;1.87;;;;;;;10.15;75.45;95684.78;5018477;28;20415;-67
2023/11/01 02:35:22;;;;;;;4.20;2.00;;;;;;;10.12;75.86;95677.09;5006896;28;20196;-69
2023/11/01 02:37:48;;;;;;;6.90;2.23;;;;;;;10.14;75.74;95677.00;5007337;28;20687;-70
2023/11/01 02:40:14;;;;;;;4.40;2.27;;;;;;;10.07;75.84;95679.09;5007413;28;20176;-68
2023/11/01 02:42:41;;;;;;;4.63;2.83;;;;;;;10.14;75.68;95677.84;5022469;28;20176;-70
2023/11/01 02:45:09;;;;;;;1.90;1.60;;;;;;;10.15;75.51;95668.19;5007285;28;20407;-69
2023/11/01 02:47:39;;;;;;;2.17;1.67;;;;;;;10.05;76.05;95673.09;5007333;28;20430;-68
2023/11/01 02:50:06;;;;;;;2.60;1.63;;;;;;;10.06;75.65;95663.44;5007070;28;20834;-69
2023/11/01 02:52:35;;;;;;;3.23;2.30;;;;;;;10.07;75.84;95671.25;5006962;28;20415;-68
2023/11/01 02:55:11;;;;;;;3.03;1.90;;;;;;;10.06;75.35;95669.56;5006663;28;20418;-70
2023/11/01 02:57:37;;;;;;;5.63;2.60;;;;;;;10.09;75.49;95677.25;5006901;28;20442;-70
2023/11/01 03:00:08;;;;;;;7.90;1.93;;;;;;;10.09;75.35;95676.41;5007045;28;20431;-70
2023/11/01 03:02:34;;;;;;;6.40;2.10;;;;;;;10.18;74.56;95678.50;5006957;28;20412;-68
2023/11/01 03:04:59;;;;;;;7.60;2.57;;;;;;;10.02;76.28;95677.66;5005403;28;20430;-69
2023/11/01 03:07:25;;;;;;;3.00;2.30;;;;;;;9.74;77.16;95679.97;5007197;28;20431;-69
2023/11/01 03:09:50;;;;;;;4.43;2.20;;;;;;;10.00;76.22;95671.66;5007041;28;20715;-69
2023/11/01 03:12:15;;;;;;;3.90;2.00;;;;;;;9.89;76.11;95677.47;5006769;28;20180;-68
2023/11/01 03:14:41;;;;;;;3.90;2.13;;;;;;;9.98;76.07;95682.22;5006543;28;20651;-69
2023/11/01 03:17:07;;;;;;;3.10;1.87;;;;;;;10.02;76.02;95683.75;5006554;28;20641;-69
2023/11/01 03:19:32;;;;;;;2.17;1.83;;;;;;;10.15;75.43;95686.56;5006368;28;20682;-69
2023/11/01 03:21:57;;;;;;;10.07;2.20;;;;;;;10.13;75.45;95681.41;5006861;28;21115;-70
2023/11/01 03:24:23;;;;;;;3.10;1.67;;;;;;;10.17;75.42;95687.31;5006499;28;20718;-70
2023/11/01 03:26:48;;;;;;;2.50;2.13;;;;;;;10.07;75.47;95675.66;5006375;28;20188;-67
2023/11/01 03:29:14;;;;;;;1.70;1.50;;;;;;;10.05;75.23;95675.72;5006860;28;20249;-68
2023/11/01 03:31:39;;;;;;;5.43;1.83;;;;;;;10.00;75.27;95671.66;5006090;28;20168;-69
2023/11/01 03:34:04;;;;;;;2.47;1.60;;;;;;;9.96;75.59;95666.56;5023659;28;20654;-68
2023/11/01 03:36:30;;;;;;;8.17;2.30;;;;;;;10.01;75.63;95665.47;5026147;28;20175;-67
2023/11/01 03:38:55;;;;;;;2.93;2.00;;;;;;;10.01;75.47;95660.22;5026279;28;20192;-68
2023/11/01 03:41:21;;;;;;;4.27;1.90;;;;;;;9.94;75.79;95663.19;5026334;28;20256;-69
2023/11/01 03:43:47;;;;;;;3.17;2.13;;;;;;;9.98;76.06;95660.41;5026077;28;20923;-67
2023/11/01 03:46:12;;;;;;;6.20;2.50;;;;;;;9.99;75.52;95659.47;5025919;28;20413;-67
2023/11/01 03:48:38;;;;;;;3.23;1.83;;;;;;;9.84;75.97;95664.59;5025990;28;20167;-68
2023/11/01 03:51:04;;;;;;;2.90;2.07;;;;;;;9.82;75.97;95671.69;5026058;28;20176;-69
2023/11/01 03:53:30;;;;;;;2.83;2.07;;;;;;;9.88;75.65;95679.25;5026119;28;20271;-69
2023/11/01 03:55:56;;;;;;;5.23;2.47;;;;;;;9.96;75.61;95666.56;5025814;28;20652;-69
2023/11/01 03:58:22;;;;;;;2.37;2.10;;;;;;;9.97;75.13;95662.19;5026452;28;20458;-70
2023/11/01 04:00:48;;;;;;;4.70;2.70;;;;;;;9.76;75.74;95669.41;5026557;28;20736;-70
2023/11/01 04:03:13;;;;;;;2.70;2.30;;;;;;;9.82;75.76;95673.47;5026627;28;20191;-69
2023/11/01 04:05:39;;;;;;;7.37;3.43;;;;;;;9.92;75.67;95666.81;5025918;28;20168;-68
2023/11/01 04:08:05;;;;;;;2.90;2.60;;;;;;;10.04;75.24;95660.94;5026266;28;20287;-69
2023/11/01 04:10:30;;;;;;;4.40;2.70;;;;;;;9.88;75.47;95655.66;5026589;28;20720;-67
2023/11/01 04:12:56;;;;;;;3.90;2.50;;;;;;;9.95;75.48;95650.94;5027148;28;20186;-70
2023/11/01 04:15:21;;;;;;;15.00;2.60;;;;;;;10.00;75.19;95642.84;5026816;28;20245;-70
2023/11/01 04:17:47;;;;;;;8.93;3.10;;;;;;;9.89;75.70;95646.00;5027263;28;20195;-68
2023/11/01 04:20:13;;;;;;;7.20;3.77;;;;;;;9.90;76.22;95652.97;5028727;28;20171;-69
2023/11/01 04:22:39;;;;;;;4.10;2.50;;;;;;;9.88;75.64;95646.94;5031234;28;20183;-68
2023/11/01 04:25:10;;;;;;;3.50;2.07;;;;;;;9.89;75.76;95641.59;5033961;28;20827;-69
2023/11/01 04:27:39;;;;;;;6.07;2.73;;;;;;;9.87;75.92;95653.09;5034185;28;20434;-68
2023/11/01 04:30:09;;;;;;;4.10;2.60;;;;;;;9.93;75.65;95637.91;5035088;28;20422;-66
2023/11/01 04:32:36;;;;;;;11.10;2.70;;;;;;;9.82;75.93;95639.41;5038110;28;20442;-66
2023/11/01 04:35:02;;;;;;;7.13;2.40;;;;;;;9.82;75.77;95632.38;5030344;28;20415;-66
2023/11/01 04:37:28;;;;;;;2.87;2.20;;;;;;;9.85;75.79;95636.59;5031132;28;20434;-67
2023/11/01 04:39:53;;;;;;;2.90;2.47;;;;;;;9.74;76.14;95627.56;5019655;28;20454;-69
2023/11/01 04:42:18;;;;;;;3.20;2.10;;;;;;;9.73;76.17;95627.63;5009929;28;20831;-69
2023/11/01 04:44:44;;;;;;;4.90;1.83;;;;;;;9.72;75.93;95632.03;5009228;28;20180;-68
2023/11/01 04:47:11;;;;;;;3.30;2.43;;;;;;;9.64;76.15;95631.59;5010108;28;20188;-68
2023/11/01 04:49:37;;;;;;;3.70;2.27;;;;;;;9.52;76.17;95620.00;5009787;28;20543;-69
2023/11/01 04:52:03;;;;;;;3.40;2.40;;;;;;;9.64;76.22;95615.88;5009326;28;20423;-67
2023/11/01 04:54:28;;;;;;;5.13;3.50;;;;;;;9.57;76.17;95616.25;5008912;28;20652;-70
2023/11/01 04:56:53;;;;;;;5.20;2.63;;;;;;;9.54;76.24;95612.03;5009114;28;20437;-67
2023/11/01 04:59:19;;;;;;;6.93;2.50;;;;;;;9.31;76.77;95605.41;5009329;28;20247;-67
2023/11/01 05:01:47;;;;;;;6.43;4.27;;;;;;;9.08;78.02;95602.16;5009348;28;20180;-67
2023/11/01 05:04:12;;;;;;;9.03;2.97;;;;;;;9.06;77.94;95593.53;5009257;28;20697;-68
2023/11/01 05:06:39;;;;;;;4.30;2.90;;;;;;;9.03;78.09;95598.09;5009463;28;20462;-66
2023/11/01 05:09:04;;;;;;;3.37;2.60;;;;;;;9.04;77.71;95579.69;5009784;28;20640;-69
2023/11/01 05:11:30;;;;;;;11.40;3.10;;;;;;;9.28;76.87;95579.34;5009511;28;20422;-69
2023/11/01 05:13:55;;;;;;;5.33;3.10;;;;;;;9.30;76.77;95577.50;5009116;28;20169;-71
2023/11/01 05:16:21;;;;;;;6.47;3.17;;;;;;;9.24;76.85;95578.69;5009329;28;20188;-70
2023/11/01 05:18:46;;;;;;;12.40;3.17;;;;;;;9.24;76.90;95576.06;5009162;28;20206;-69
2023/11/01 05:21:12;;;;;;;9.43;4.40;;;;;;;9.29;76.27;95566.19;5007956;28;20250;-69
2023/11/01 05:23:37;;;;;;;2.50;2.30;;;;;;;9.26;76.49;95568.97;5008951;28;20175;-67
2023/11/01 05:26:03;;;;;;;5.00;2.43;;;;;;;9.28;76.09;95563.63;5008807;28;20988;-66
2023/11/01 05:28:28;;;;;;;4.00;3.03;;;;;;;9.22;76.38;95566.59;5008607;28;20192;-70
2023/11/01 05:30:53;;;;;;;5.20;4.20;;;;;;;9.24;76.49;95572.59;5008712;28;20172;-70
2023/11/01 05:33:19;;;;;;;5.83;4.10;;;;;;;9.20;76.24;95564.03;5020003;28;20183;-69
2023/11/01 05:35:45;;;;;;;5.80;3.43;;;;;;;9.17;76.80;95568.63;5028244;28;20290;-70
2023/11/01 05:38:12;;;;;;;7.93;3.27;;;;;;;9.16;76.81;95567.75;5028335;28;20664;-69
2023/11/01 05:40:37;;;;;;;3.87;2.73;;;;;;;9.22;76.44;95556.13;5026909;28;20434;-70
2023/11/01 05:43:04;;;;;;;9.80;4.47;;;;;;;9.24;76.30;95543.81;5028543;28;20418;-69
2023/11/01 05:45:30;;;;;;;10.60;3.60;;;;;;;9.06;76.99;95550.84;5028510;28;20175;-69
2023/11/01 05:47:56;;;;;;;11.40;2.93;;;;;;;9.17;76.13;95552.91;5028342;28;20971;-70
2023/11/01 05:50:23;;;;;;;8.63;3.43;;;;;;;9.28;75.75;95550.56;5028271;28;20175;-70
2023/11/01 05:52:50;;;;;;;6.00;3.00;;;;;;;9.17;76.58;95552.91;5028555;28;20230;-68
2023/11/01 05:55:15;;;;;;;4.00;3.40;;;;;;;9.06;77.10;95553.44;5026721;28;20414;-69
2023/11/01 05:57:41;;;;;;;6.17;2.77;;;;;;;8.67;78.26;95559.78;5027832;28;20438;-68
2023/11/01 06:00:10;;;;;;;7.10;3.03;;;;;;;8.67;78.17;95563.25;5028204;28;20207;-70
2023/11/01 06:02:37;;;;;;;3.90;2.90;;;;;;;8.97;77.30;95567.84;5028180;28;20171;-68
2023/11/01 06:05:03;;;;;;;10.03;3.23;;;;;;;9.16;75.93;95567.75;5027671;28;20414;-69
2023/11/01 06:07:29;;;;;;;5.20;2.40;;;;;;;9.22;75.79;95567.44;5028055;28;20441;-66
2023/11/01 06:09:55;;;;;;;4.67;2.67;;;;;;;9.24;75.28;95570.00;5027821;28;20406;-68
2023/11/01 06:12:20;;;;;;;5.57;3.13;;;;;;;9.27;75.24;95565.41;5027782;28;20919;-68
2023/11/01 06:14:46;;;;;;;7.03;2.50;;;;;;;9.27;75.35;95569.81;5027406;28;20701;-68
2023/11/01 06:17:11;;;;;;;10.73;3.10;;;;;;;9.77;73.19;95560.19;5027600;28;20195;-69
2023/11/01 06:19:36;;;;;;;14.47;5.30;;;;;;;10.40;70.78;95557.59;5027356;28;20304;-69
2023/11/01 06:22:04;;;;;;;7.83;3.10;;;;;;;10.75;69.03;95560.00;5027554;28;20172;-68
2023/11/01 06:24:32;;;;;;;13.93;4.50;;;;;;;11.67;66.05;95546.59;5025946;28;20172;-68
2023/11/01 06:26:58;;;;;;;6.17;3.90;;;;;;;12.07;64.62;95550.22;5027477;28;20445;-68
2023/11/01 06:29:23;;;;;;;6.50;3.80;;;;;;;12.57;62.09;95549.72;5027614;28;20402;-71
2023/11/01 06:31:48;;;;;;;5.73;3.53;;;;;;;13.06;60.21;95549.94;5027596;28;20191;-69
2023/11/01 06:34:14;;;;;;;4.70;3.27;;;;;;;13.47;58.44;95543.66;5008000;28;20207;-68
2023/11/01 06:36:39;;;;;;;2.87;2.57;;;;;;;13.97;56.99;95536.59;5007150;28;20283;-70
2023/11/01 06:39:05;;;;;;;6.40;4.13;;;;;;;14.40;55.29;95549.34;5007673;28;20196;-68
2023/11/01 06:41:30;;;;;;;3.03;2.73;;;;;;;14.57;54.42;95549.94;5007842;28;20207;-67
2023/11/01 06:43:56;;;;;;;3.87;2.67;;;;;;;14.97;53.25;95544.34;5007449;28;20179;-69
2023/11/01 06:46:22;;;;;;;3.00;2.30;;;;;;;15.37;52.26;95542.16;5008207;28;20279;-68
2023/11/01 06:48:47;;;;;;;2.60;2.40;;;;;;;16.02;50.67;95534.53;5008745;28;20194;-69
2023/11/01 06:51:14;;;;;;;9.00;3.80;;;;;;;16.21;49.54;95526.81;5010387;28;20978;-68
2023/11/01 06:53:40;;;;;;;3.30;2.50;;;;;;;17.04;48.01;95524.50;5005921;28;20185;-68
2023/11/01 06:56:05;;;;;;;3.93;1.90;;;;;;;17.23;47.32;95529.09;5007274;28;20969;-69
2023/11/01 06:58:31;;;;;;;10.43;2.83;;;;;;;17.27;46.75;95530.53;5007422;28;20215;-69
2023/11/01 07:00:56;;;;;;;4.23;2.07;;;;;;;17.77;45.54;95536.81;5007297;28;20179;-68
2023/11/01 07:03:21;;;;;;;5.33;2.37;;;;;;;18.29;44.04;95530.63;5007046;28;20946;-70
2023/11/01 07:05:48;;;;;;;6.40;2.63;;;;;;;18.32;43.94;95531.16;5006632;28;20199;-65
2023/11/01 07:08:13;;;;;;;5.60;2.40;;;;;;;18.23;44.46;95531.13;5006519;28;20216;-69
2023/11/01 07:10:39;;;;;;;5.50;2.60;;;;;;;16.46;48.10;95533.63;5006958;28;20419;-66
2023/11/01 07:13:06;;;;;;;4.90;2.40;;;;;;;16.76;48.21;95533.88;5006792;28;20184;-68
2023/11/01 07:15:32;;;;;;;4.93;2.40;;;;;;;16.34;48.35;95531.94;5006205;28;20427;-69
2023/11/01 07:17:57;;;;;;;3.90;2.10;;;;;;;15.25;51.62;95536.00;5006419;28;20526;-68
2023/11/01 07:20:22;;;;;;;4.63;2.43;;;;;;;14.44;53.52;95541.22;5006798;28;20340;-69
2023/11/01 07:22:48;;;;;;;3.40;2.20;;;;;;;14.07;55.20;95541.22;5006781;28;20221;-68
2023/11/01 07:25:13;;;;;;;4.40;2.30;;;;;;;13.90;55.54;95534.53;5006738;28;20168;-66
2023/11/01 07:27:39;;;;;;;3.00;2.17;;;;;;;13.72;56.17;95534.88;5006495;28;20196;-68
2023/11/01 07:30:05;;;;;;;3.47;2.57;;;;;;;15.20;52.46;95518.84;5006630;28;20176;-69
2023/11/01 07:32:30;;;;;;;3.60;2.50;;;;;;;17.52;46.30;95511.53;5011507;28;20266;-69
2023/11/01 07:34:56;;;;;;;3.17;2.20;;;;;;;19.13;42.17;95509.69;5026182;28;20172;-69
2023/11/01 07:37:21;;;;;;;4.00;2.53;;;;;;;19.90;39.89;95502.53;5026208;28;20195;-69
2023/11/01 07:39:46;;;;;;;3.07;1.70;;;;;;;20.10;39.13;95503.28;5026212;28;20191;-70
2023/11/01 07:42:12;;;;;;;2.33;2.13;;;;;;;20.83;37.56;95497.09;5041415;28;20559;-68
2023/11/01 07:44:38;;;;;;;7.00;2.43;;;;;;;20.97;36.52;95498.38;5025639;28;20228;-66
2023/11/01 07:47:03;;;;;;;4.43;2.30;;;;;;;21.61;36.06;95499.06;5026534;28;21052;-70
2023/11/01 07:49:29;;;;;;;10.63;4.10;;;;;;;22.10;35.24;95485.97;5026358;28;20229;-68
2023/11/01 07:51:55;;;;;;;4.20;1.90;;;;;;;22.28;34.44;95483.25;5025682;28;20206;-69
2023/11/01 07:54:20;;;;;;;5.83;2.27;;;;;;;22.72;33.76;95481.16;5025666;28;20175;-69
2023/11/01 07:56:47;;;;;;;4.60;2.17;;;;;;;22.50;34.09;95487.13;5024381;28;21010;-67
2023/11/01 07:59:12;;;;;;;14.63;3.00;;;;;;;22.09;34.66;95476.28;5025795;28;20635;-68
2023/11/01 08:01:37;;;;;;;3.17;1.63;;;;;;;22.13;34.37;95474.94;5025936;28;20465;-68
2023/11/01 08:04:03;;;;;;;8.70;1.90;;;;;;;22.25;33.97;95475.53;5025668;28;20175;-68
2023/11/01 08:06:28;;;;;;;2.03;1.60;;;;;;;22.42;34.32;95477.25;5040893;28;20250;-68
2023/11/01 08:08:54;;;;;;;2.50;1.90;;;;;;;21.82;34.75;95469.31;5025940;28;20275;-68
2023/11/01 08:11:19;;;;;;;3.30;2.00;;;;;;;21.76;35.09;95465.44;5026094;28;20167;-68
2023/11/01 08:13:45;;;;;;;2.90;2.37;;;;;;;21.70;35.21;95466.06;5026196;28;20178;-69
2023/11/01 08:16:11;;;;;;;3.60;2.10;;;;;;;22.23;34.80;95466.81;5025541;28;20179;-67
2023/11/01 08:18:36;;;;;;;5.80;2.93;;;;;;;22.47;34.14;95472.25;5025368;28;20646;-69
2023/11/01 08:21:02;;;;;;;3.00;2.60;;;;;;;21.46;35.68;95470.28;5028762;28;20175;-68
2023/11/01 08:23:28;;;;;;;4.97;3.40;;;;;;;20.89;36.79;95465.31;5030685;28;20179;-69
2023/11/01 08:25:53;;;;;;;3.77;2.33;;;;;;;21.13;36.73;95469.19;5030316;28;20417;-70
2023/11/01 08:28:18;;;;;;;3.30;1.70;;;;;;;22.19;34.60;95461.78;5032173;28;20214;-69
2023/11/01 08:30:44;;;;;;;5.33;2.13;;;;;;;21.33;36.11;95460.00;5032880;28;20176;-68
2023/11/01 08:33:10;;;;;;;2.30;1.67;;;;;;;21.05;36.94;95474.47;5033621;28;20267;-68
2023/11/01 08:35:35;;;;;;;6.00;2.60;;;;;;;20.76;37.62;95470.19;5042400;28;20171;-68
2023/11/01 08:38:03;;;;;;;11.73;2.60;;;;;;;19.98;38.96;95465.34;5036378;28;20196;-68
2023/11/01 08:40:28;;;;;;;4.07;2.30;;;;;;;20.31;38.33;95468.38;5035490;28;20183;-70
2023/11/01 08:42:54;;;;;;;2.07;1.87;;;;;;;19.95;39.16;95467.47;5031161;28;20410;-68
2023/11/01 08:45:19;;;;;;;4.30;1.97;;;;;;;19.57;39.98;95459.47;5030220;28;20705;-68
2023/11/01 08:47:45;;;;;;;2.70;1.40;;;;;;;18.32;42.53;95461.28;5029661;28;20187;-67
2023/11/01 08:50:12;;;;;;;4.30;2.00;;;;;;;18.48;41.98;95464.22;5029122;28;20642;-68
2023/11/01 08:52:42;;;;;;;2.93;2.10;;;;;;;18.48;41.68;95460.75;5028819;28;20171;-69
2023/11/01 08:55:11;;;;;;;3.47;1.50;;;;;;;18.50;41.49;95464.09;5028710;28;20416;-69
2023/11/01 08:57:37;;;;;;;3.80;1.50;;;;;;;18.92;41.08;95458.50;5028868;28;21097;-70
2023/11/01 09:00:05;;;;;;;3.40;1.40;;;;;;;19.20;39.63;95460.28;5028775;28;20458;-68
2023/11/01 09:02:31;;;;;;;3.00;1.50;;;;;;;19.48;38.89;95459.50;5028972;28;20171;-70
2023/11/01 09:04:56;;;;;;;2.80;1.53;;;;;;;19.76;38.56;95453.28;5027205;28;20784;-70
2023/11/01 09:07:22;;;;;;;7.33;1.43;;;;;;;19.52;38.75;95455.59;5029002;28;20195;-69
2023/11/01 09:09:49;;;;;;;3.40;1.53;;;;;;;19.59;38.90;95448.69;5028984;28;20755;-68
2023/11/01 09:12:15;;;;;;;6.80;1.60;;;;;;;19.54;39.34;95443.81;5028567;28;20803;-68
2023/11/01 09:14:41;;;;;;;4.10;1.80;;;;;;;19.80;38.97;95441.34;5028293;28;20422;-69
2023/11/01 09:17:06;;;;;;;4.90;1.60;;;;;;;19.64;38.66;95443.78;5028487;28;20195;-70
2023/11/01 09:19:31;;;;;;;3.83;1.43;;;;;;;19.64;38.38;95441.09;5028900;28;20210;-68
2023/11/01 09:21:57;;;;;;;4.27;1.30;;;;;;;19.48;38.77;95432.91;5029277;28;20642;-67
2023/11/01 09:24:22;;;;;;;4.07;1.80;;;;;;;19.27;39.39;95436.59;5028355;28;20528;-68
2023/11/01 09:26:48;;;;;;;2.00;1.60;;;;;;;19.52;39.28;95432.47;5027667;28;20203;-68
2023/11/01 09:29:13;;;;;;;5.53;1.63;;;;;;;19.58;39.30;95447.88;5028661;28;20609;-70
2023/11/01 09:31:38;;;;;;;4.47;2.20;;;;;;;19.57;39.63;95450.66;5027782;28;20164;-71
2023/11/01 09:34:04;;;;;;;4.37;1.70;;;;;;;19.79;38.83;95442.31;5011044;28;20176;-68
2023/11/01 09:36:29;;;;;;;11.07;2.50;;;;;;;19.62;39.71;95446.56;5010580;28;20187;-70
2023/11/01 09:38:55;;;;;;;5.40;1.83;;;;;;;19.67;39.44;95444.28;5008486;28;20204;-69
2023/11/01 09:41:27;;;;;;;3.60;1.40;;;;;;;19.56;39.92;95444.50;5008948;28;20172;-68
2023/11/01 09:43:56;;;;;;;4.23;2.17;;;;;;;19.83;39.04;95449.03;5008328;28;20172;-67
2023/11/01 09:46:22;;;;;;;4.73;3.00;;;;;;;19.64;39.62;95444.59;5008316;28;20462;-68
2023/11/01 09:48:50;;;;;;;3.30;1.33;;;;;;;19.33;40.23;95445.84;5008274;28;20422;-68
2023/11/01 09:51:16;;;;;;;2.57;1.77;;;;;;;19.53;40.37;95444.78;5008374;28;20450;-70
2023/11/01 09:53:42;;;;;;;9.27;2.23;;;;;;;19.85;39.12;95444.41;5008253;28;20498;-69
2023/11/01 09:56:08;;;;;;;14.00;2.23;;;;;;;19.53;38.70;95442.13;5008105;28;20841;-70
2023/11/01 09:58:34;;;;;;;10.00;2.37;;;;;;;19.54;38.62;95440.31;5008098;28;20208;-69
2023/11/01 10:01:00;;;;;;;28.43;4.40;;;;;;;19.61;38.25;95431.59;5008015;28;20275;-70
2023/11/01 10:03:25;;;;;;;11.63;2.80;;;;;;;19.70;38.58;95437.91;5007951;28;20430;-69
2023/11/01 10:05:50;;;;;;;24.33;4.47;;;;;;;19.25;39.08;95434.09;5008114;28;20265;-69
2023/11/01 10:08:16;;;;;;;5.90;1.90;;;;;;;19.33;39.19;95436.03;5008159;28;20180;-69
2023/11/01 10:10:41;;;;;;;13.70;2.90;;;;;;;19.38;39.42;95433.78;5007933;28;21085;-69
2023/11/01 10:13:08;;;;;;;4.90;1.70;;;;;;;19.20;39.74;95425.69;5007932;28;20180;-69
2023/11/01 10:15:34;;;;;;;7.70;2.13;;;;;;;19.38;39.13;95422.31;5006386;28;20399;-69
2023/11/01 10:17:59;;;;;;;17.40;2.53;;;;;;;19.27;39.06;95430.44;5007831;28;20632;-70
2023/11/01 10:20:29;;;;;;;13.90;2.40;;;;;;;19.43;38.70;95426.19;5007895;28;20604;-66
2023/11/01 10:22:56;;;;;;;3.00;1.50;;;;;;;19.40;38.85;95409.69;5007597;28;20172;-66
2023/11/01 10:25:21;;;;;;;3.00;1.80;;;;;;;19.22;39.55;95407.78;5007467;28;20469;-69
2023/11/01 10:27:49;;;;;;;5.27;1.60;;;;;;;19.13;39.35;95405.97;5007528;28;20438;-68
2023/11/01 10:30:15;;;;;;;3.43;1.40;;;;;;;19.07;39.18;95401.25;5007411;28;20168;-68
2023/11/01 10:32:53;;;;;;;2.10;1.60;;;;;;;19.28;39.05;95397.56;5013506;28;20418;-69
2023/11/01 10:35:18;;;;;;;5.10;1.60;;;;;;;19.13;39.74;95389.19;5025180;28;20180;-67
2023/11/01 10:37:44;;;;;;;9.73;2.50;;;;;;;18.77;40.28;95396.97;5026868;28;20472;-68
2023/11/01 10:40:12;;;;;;;9.90;1.83;;;;;;;18.87;40.68;95396.94;5026962;28;20211;-67
2023/11/01 10:42:39;;;;;;;5.60;1.80;;;;;;;19.22;40.06;95383.00;5026831;28;20254;-69
2023/11/01 10:45:05;;;;;;;9.90;2.00;;;;;;;19.07;40.11;95379.97;5026726;28;20417;-69
2023/11/01 10:47:31;;;;;;;2.57;2.10;;;;;;;19.14;40.44;95378.41;5027124;28;20921;-70
2023/11/01 10:49:57;;;;;;;6.47;2.27;;;;;;;19.23;40.25;95376.72;5027490;28;20168;-69
2023/11/01 10:52:25;;;;;;;6.43;1.70;;;;;;;19.38;39.64;95367.25;5024887;28;20426;-67
2023/11/01 10:54:51;;;;;;;3.93;3.47;;;;;;;19.32;39.98;95361.69;5026481;28;20179;-69
2023/11/01 10:57:18;;;;;;;4.50;1.53;;;;;;;19.27;39.20;95356.81;5026658;28;20510;-69
2023/11/01 10:59:53;;;;;;;3.07;1.33;;;;;;;19.06;40.36;95354.34;5026520;28;20200;-69
2023/11/01 11:02:24;;;;;;;3.13;1.80;;;;;;;19.21;40.01;95347.59;5026750;28;20432;-69
2023/11/01 11:05:04;;;;;;;2.90;1.40;;;;;;;19.39;39.85;95341.50;5026370;28;20491;-70
2023/11/01 11:07:38;;;;;;;5.97;1.47;;;;;;;19.26;39.93;95341.84;5026882;28;20426;-68
2023/11/01 11:10:26;;;;;;;9.73;1.90;;;;;;;19.17;40.06;95338.22;5027153;28;20901;-69
2023/11/01 11:13:09;;;;;;;6.57;1.93;;;;;;;18.59;41.40;95331.25;5026896;28;20402;-69
2023/11/01 11:15:47;;;;;;;23.37;2.73;;;;;;;18.19;42.51;95323.47;5026251;28;20507;-68
2023/11/01 11:18:24;;;;;;;20.33;3.40;;;;;;;17.83;43.73;95331.09;5028697;28;20446;-68
2023/11/01 11:20:50;;;;;;;69.83;9.03;;;;;;;18.14;42.98;95323.03;5033056;28;20987;-68
2023/11/01 11:23:19;;;;;;;12.87;2.73;;;;;;;18.31;42.53;95322.34;5031893;28;20924;-67
2023/11/01 11:25:50;;;;;;;19.73;2.37;;;;;;;18.21;42.97;95318.81;5031604;28;20425;-68
2023/11/01 11:28:18;;;;;;;5.43;1.87;;;;;;;18.23;42.97;95324.00;5031636;28;20430;-69
2023/11/01 11:30:44;;;;;;;7.90;1.83;;;;;;;18.17;43.14;95328.91;5030329;28;20505;-69